Time;durP1;ratioP1;P1;durP2;ratioP2;P2;SDS_P1;SDS_P2;PMS_P1;PMS_P2;Temp;Humidity;BMP_temperature;BMP_pressure;BME280_temperature;BME280_humidity;BME280_pressure;Samples;Min_cycle;Max_cycle;Signal;HPM_P1;HPM_P2
2021/06/08 00:01:07;;;;;;;6.35;2.50;;;;;;;22.00;50.53;101048.03;5032754;28;20140;-66
2021/06/08 00:03:34;;;;;;;10.10;2.85;;;;;;;21.95;50.28;101040.06;5032449;28;20117;-67
2021/06/08 00:06:01;;;;;;;5.63;2.15;;;;;;;21.96;50.08;101035.59;5028369;28;20053;-66
2021/06/08 00:08:28;;;;;;;6.20;2.65;;;;;;;21.97;49.95;101034.69;5032404;28;20129;-66
2021/06/08 00:10:55;;;;;;;7.70;2.72;;;;;;;21.96;49.83;101030.22;5031651;28;20451;-66
2021/06/08 00:13:22;;;;;;;9.63;2.75;;;;;;;21.96;49.33;101028.41;5031369;28;20034;-67
2021/06/08 00:15:51;;;;;;;5.38;2.30;;;;;;;21.99;49.19;101028.31;5032558;28;20499;-67
2021/06/08 00:18:18;;;;;;;6.55;2.45;;;;;;;21.93;49.45;101025.75;5032968;28;20041;-66
2021/06/08 00:20:46;;;;;;;5.22;2.25;;;;;;;21.88;49.38;101016.94;5032284;28;20117;-67
2021/06/08 00:23:13;;;;;;;9.90;2.38;;;;;;;21.90;49.27;101015.13;5032479;28;20696;-67
2021/06/08 00:25:40;;;;;;;4.15;1.90;;;;;;;21.95;48.78;101020.34;5032673;28;20116;-66
2021/06/08 00:28:08;;;;;;;5.80;1.90;;;;;;;21.96;48.42;101019.47;5031917;28;20137;-67
2021/06/08 00:30:36;;;;;;;7.35;2.40;;;;;;;21.88;47.96;101025.00;5032744;28;20472;-67
2021/06/08 00:33:04;;;;;;;10.45;2.45;;;;;;;21.84;48.31;101017.97;5032321;28;20169;-67
2021/06/08 00:35:32;;;;;;;8.10;2.35;;;;;;;21.85;48.11;101012.56;5032082;28;20044;-67
2021/06/08 00:38:00;;;;;;;6.28;2.40;;;;;;;21.82;48.42;101011.75;5032591;28;20045;-66
2021/06/08 00:40:27;;;;;;;6.82;1.90;;;;;;;21.76;48.34;101007.41;5031069;28;20049;-67
2021/06/08 00:42:54;;;;;;;6.72;2.05;;;;;;;21.79;48.11;100995.72;5032133;28;20113;-67
2021/06/08 00:45:22;;;;;;;7.30;2.65;;;;;;;21.79;48.08;100999.25;5031628;28;20677;-67
2021/06/08 00:47:49;;;;;;;4.32;1.75;;;;;;;21.82;47.89;100999.19;5032220;28;20517;-67
2021/06/08 00:50:18;;;;;;;6.90;2.20;;;;;;;21.68;47.92;101003.16;5031868;28;20049;-67
2021/06/08 00:52:45;;;;;;;7.07;2.22;;;;;;;21.63;48.12;101000.59;5031770;28;20033;-66
2021/06/08 00:55:13;;;;;;;7.93;2.10;;;;;;;21.59;47.87;101003.41;5025160;28;20038;-66
2021/06/08 00:57:41;;;;;;;6.35;2.00;;;;;;;21.60;47.77;100997.09;5031849;28;20064;-67
2021/06/08 01:00:09;;;;;;;8.77;2.22;;;;;;;21.62;47.53;101006.00;5031452;28;20053;-66
2021/06/08 01:02:36;;;;;;;6.97;2.20;;;;;;;21.59;47.45;101009.66;5030106;28;20560;-67
2021/06/08 01:05:05;;;;;;;8.27;2.33;;;;;;;21.62;47.70;101008.69;5031693;28;20056;-66
2021/06/08 01:07:33;;;;;;;6.18;2.33;;;;;;;21.62;48.03;101012.25;5031779;28;20041;-66
2021/06/08 01:10:00;;;;;;;8.25;2.80;;;;;;;21.58;47.97;101013.28;5031272;28;20056;-66
2021/06/08 01:12:28;;;;;;;8.95;2.15;;;;;;;21.47;48.01;101012.63;5030633;28;20132;-66
2021/06/08 01:14:55;;;;;;;8.70;2.63;;;;;;;21.42;47.93;101018.13;5031294;28;20128;-66
2021/06/08 01:17:22;;;;;;;12.77;2.60;;;;;;;21.44;47.90;101016.31;5031214;28;20525;-67
2021/06/08 01:19:49;;;;;;;8.20;2.25;;;;;;;21.43;47.85;101011.84;5031590;28;20087;-67
2021/06/08 01:22:18;;;;;;;7.25;2.65;;;;;;;21.51;47.33;101005.41;5031319;28;20045;-67
2021/06/08 01:24:46;;;;;;;6.20;2.20;;;;;;;21.56;47.18;101006.16;5031110;28;20060;-66
2021/06/08 01:27:13;;;;;;;9.55;2.33;;;;;;;21.53;47.29;101014.31;5030705;28;20052;-67
2021/06/08 01:29:41;;;;;;;6.45;1.80;;;;;;;21.53;47.21;101006.25;5031349;28;20107;-66
2021/06/08 01:32:12;;;;;;;4.65;1.88;;;;;;;21.56;47.12;101015.09;5031176;28;20084;-67
2021/06/08 01:34:41;;;;;;;12.02;2.50;;;;;;;21.57;47.03;101014.19;5030951;28;20041;-66
2021/06/08 01:37:09;;;;;;;6.38;2.13;;;;;;;21.41;47.88;101032.50;5031125;28;20045;-66
2021/06/08 01:39:39;;;;;;;7.57;2.17;;;;;;;21.39;48.27;101034.34;5031385;28;20042;-66
2021/06/08 01:42:07;;;;;;;5.65;2.22;;;;;;;21.19;48.83;101039.31;5030228;28;20091;-67
2021/06/08 01:44:34;;;;;;;8.00;2.22;;;;;;;20.99;49.44;101063.91;5030878;28;20041;-67
2021/06/08 01:47:01;;;;;;;6.60;2.13;;;;;;;20.97;49.77;101068.41;5030515;28;20468;-66
2021/06/08 01:49:28;;;;;;;8.40;2.35;;;;;;;21.19;49.29;101073.34;5031063;28;20642;-67
2021/06/08 01:52:07;;;;;;;6.10;1.88;;;;;;;21.39;48.52;101085.38;5031019;28;20041;-67
2021/06/08 01:54:40;;;;;;;7.47;2.10;;;;;;;21.48;48.45;101086.94;5030786;28;20045;-66
2021/06/08 01:57:13;;;;;;;6.30;1.98;;;;;;;21.37;49.10;101089.03;5030275;28;20107;-66
2021/06/08 01:59:53;;;;;;;5.38;1.90;;;;;;;21.37;49.26;101087.22;5030156;28;20043;-66
2021/06/08 02:02:26;;;;;;;8.48;2.65;;;;;;;21.49;49.02;101077.97;5030319;28;20744;-67
2021/06/08 02:05:06;;;;;;;6.50;2.33;;;;;;;21.61;48.59;101060.66;5030692;28;20038;-66
2021/06/08 02:07:41;;;;;;;7.90;2.30;;;;;;;21.56;49.12;101009.72;5030301;28;20117;-66
2021/06/08 02:10:29;;;;;;;6.63;2.80;;;;;;;21.02;50.31;100969.84;5030774;28;20045;-66
2021/06/08 02:13:07;;;;;;;5.70;2.20;;;;;;;20.91;50.98;100962.97;5029637;28;20057;-67
2021/06/08 02:15:40;;;;;;;5.53;2.55;;;;;;;21.11;51.87;100944.59;5029784;28;20124;-66
2021/06/08 02:18:11;;;;;;;10.18;3.08;;;;;;;21.31;52.17;100938.75;5030350;28;20574;-66
2021/06/08 02:20:41;;;;;;;7.28;2.33;;;;;;;21.34;51.60;100935.97;5028981;28;20068;-66
2021/06/08 02:23:11;;;;;;;7.63;2.40;;;;;;;21.39;52.41;100934.06;5030157;28;20037;-66
2021/06/08 02:25:41;;;;;;;8.95;3.17;;;;;;;21.48;53.41;100925.75;5030271;28;20095;-66
2021/06/08 02:28:12;;;;;;;8.38;2.70;;;;;;;21.54;53.56;100940.81;5029663;28;20048;-66
2021/06/08 02:30:41;;;;;;;6.97;2.15;;;;;;;21.55;53.41;100932.72;5029356;28;20099;-66
2021/06/08 02:33:09;;;;;;;9.60;2.55;;;;;;;21.58;53.14;100935.34;5030140;28;20041;-66
2021/06/08 02:35:37;;;;;;;9.63;2.17;;;;;;;21.57;53.39;100940.75;5029851;28;20033;-67
2021/06/08 02:38:05;;;;;;;9.50;2.30;;;;;;;21.52;53.18;100942.69;5029897;28;20098;-66
2021/06/08 02:40:33;;;;;;;6.32;2.60;;;;;;;21.51;53.06;100940.91;5029898;28;20104;-66
2021/06/08 02:43:02;;;;;;;4.55;2.33;;;;;;;21.55;53.50;100940.78;5027727;28;20049;-66
2021/06/08 02:45:30;;;;;;;6.80;2.63;;;;;;;21.57;53.56;100946.13;5029852;28;20501;-66
2021/06/08 02:47:58;;;;;;;8.13;2.60;;;;;;;21.60;53.44;100932.59;5029999;28;20048;-66
2021/06/08 02:50:27;;;;;;;8.38;2.30;;;;;;;21.67;53.28;100936.88;5029944;28;20517;-66
2021/06/08 02:52:54;;;;;;;7.25;2.47;;;;;;;21.71;52.34;100957.41;5029649;28;20050;-66
2021/06/08 02:55:23;;;;;;;6.80;2.05;;;;;;;21.58;52.88;100980.16;5029362;28;20124;-67
2021/06/08 02:57:53;;;;;;;4.78;2.15;;;;;;;21.19;54.46;100990.97;5029679;28;20046;-67
2021/06/08 03:00:23;;;;;;;11.20;2.90;;;;;;;21.15;54.46;101002.66;5029961;28;20041;-67
2021/06/08 03:02:54;;;;;;;4.63;2.45;;;;;;;21.20;54.81;101010.66;5027703;28;20152;-66
2021/06/08 03:05:26;;;;;;;7.90;2.63;;;;;;;21.10;55.37;101012.63;5029910;28;20044;-67
2021/06/08 03:07:57;;;;;;;6.45;2.40;;;;;;;20.98;55.84;101031.72;5029186;28;20450;-66
2021/06/08 03:10:27;;;;;;;6.03;2.78;;;;;;;20.95;55.77;101024.59;5029052;28;20045;-65
2021/06/08 03:12:57;;;;;;;8.77;2.60;;;;;;;21.13;55.54;101017.94;5029318;28;20058;-66
2021/06/08 03:15:30;;;;;;;8.45;3.38;;;;;;;21.31;55.09;101017.53;5029167;28;20046;-65
2021/06/08 03:17:57;;;;;;;7.57;2.80;;;;;;;21.39;54.71;101023.59;5028324;28;20176;-66
2021/06/08 03:20:31;;;;;;;4.35;1.83;;;;;;;21.48;54.19;101026.03;5029515;28;20070;-67
2021/06/08 03:23:02;;;;;;;10.45;2.53;;;;;;;21.52;53.70;101029.56;5029074;28;20088;-66
2021/06/08 03:25:31;;;;;;;8.15;2.45;;;;;;;21.57;53.55;101030.31;5027921;28;20120;-66
2021/06/08 03:28:00;;;;;;;5.50;2.03;;;;;;;21.61;53.64;101023.94;5029975;28;20041;-66
2021/06/08 03:30:30;;;;;;;5.90;2.22;;;;;;;21.64;53.41;101023.88;5027233;28;20047;-66
2021/06/08 03:32:58;;;;;;;8.23;2.90;;;;;;;21.70;53.45;101030.88;5029632;28;20401;-66
2021/06/08 03:35:27;;;;;;;5.85;2.08;;;;;;;21.85;53.11;101038.56;5028756;28;20124;-66
2021/06/08 03:37:55;;;;;;;4.38;2.03;;;;;;;22.07;52.98;101038.88;5029168;28;20088;-66
2021/06/08 03:40:23;;;;;;;5.32;2.05;;;;;;;22.24;52.87;101048.25;5029146;28;20029;-67
2021/06/08 03:42:52;;;;;;;4.10;2.28;;;;;;;22.35;53.01;101052.44;5027692;28;20133;-66
2021/06/08 03:45:19;;;;;;;7.55;2.63;;;;;;;22.55;52.67;101050.06;5028710;28;21553;-67
2021/06/08 03:47:49;;;;;;;6.47;2.40;;;;;;;22.64;52.33;101056.06;5029029;28;20060;-66
2021/06/08 03:50:16;;;;;;;6.88;2.20;;;;;;;22.70;52.32;101051.44;5029303;28;20058;-66
2021/06/08 03:52:50;;;;;;;8.15;2.72;;;;;;;22.78;51.87;101046.72;5028764;28;20128;-66
2021/06/08 03:55:19;;;;;;;6.40;2.35;;;;;;;22.86;51.20;101040.19;5028520;28;20037;-66
2021/06/08 03:57:48;;;;;;;5.82;2.20;;;;;;;22.91;50.98;101030.13;5028763;28;20124;-67
2021/06/08 04:00:17;;;;;;;5.47;2.17;;;;;;;23.02;50.64;101022.63;5028223;28;20038;-66
2021/06/08 04:02:44;;;;;;;5.07;2.08;;;;;;;23.22;49.76;101013.03;5028322;28;20037;-66
2021/06/08 04:05:14;;;;;;;5.97;2.30;;;;;;;23.45;48.86;101018.53;5028141;28;20065;-67
2021/06/08 04:07:43;;;;;;;4.45;1.92;;;;;;;23.71;48.34;101012.28;5027931;28;20128;-66
2021/06/08 04:10:16;;;;;;;12.07;2.25;;;;;;;24.06;47.99;101024.53;5028974;28;20132;-66
2021/06/08 04:12:43;;;;;;;13.35;2.88;;;;;;;24.30;48.47;101033.59;5028971;28;20037;-67
2021/06/08 04:15:11;;;;;;;5.25;2.05;;;;;;;24.45;49.21;101028.50;5027094;28;20128;-67
2021/06/08 04:17:39;;;;;;;6.30;2.20;;;;;;;24.59;49.73;101031.59;5027973;28;20041;-67
2021/06/08 04:20:09;;;;;;;6.40;2.15;;;;;;;24.77;49.83;101034.50;5028670;28;20565;-66
2021/06/08 04:22:40;;;;;;;6.90;2.42;;;;;;;24.90;49.52;101046.63;5027571;28;20037;-67
2021/06/08 04:25:08;;;;;;;7.22;2.38;;;;;;;25.08;49.41;101043.19;5027793;28;20073;-67
2021/06/08 04:27:36;;;;;;;5.90;2.00;;;;;;;25.38;48.90;101049.19;5027866;28;20768;-67
2021/06/08 04:30:05;;;;;;;6.60;1.88;;;;;;;25.75;48.13;101046.75;5028736;28;20042;-66
2021/06/08 04:32:34;;;;;;;7.55;2.30;;;;;;;25.85;47.14;101038.25;5028784;28;20042;-66
2021/06/08 04:35:01;;;;;;;8.43;2.20;;;;;;;25.70;46.34;101016.31;5028623;28;20034;-67
2021/06/08 04:37:29;;;;;;;7.15;2.00;;;;;;;25.53;46.27;101009.84;5032376;28;20046;-67
2021/06/08 04:39:57;;;;;;;5.72;2.10;;;;;;;25.34;46.48;100997.06;5028007;28;20122;-66
2021/06/08 04:42:24;;;;;;;7.65;2.40;;;;;;;25.25;46.17;100988.47;5032159;28;20038;-67
2021/06/08 04:44:53;;;;;;;12.10;1.90;;;;;;;25.29;45.78;100988.28;5031837;28;20040;-67
2021/06/08 04:47:21;;;;;;;12.82;2.28;;;;;;;25.39;46.13;101003.19;5031799;28;20046;-66
2021/06/08 04:49:49;;;;;;;5.20;2.03;;;;;;;25.89;46.24;101007.41;5032312;28;20128;-67
2021/06/08 04:52:16;;;;;;;9.07;2.05;;;;;;;26.51;45.27;101010.03;5031842;28;20076;-67
2021/06/08 04:54:43;;;;;;;6.57;2.03;;;;;;;27.16;44.55;101025.88;5032055;28;20742;-67
2021/06/08 04:57:16;;;;;;;9.95;2.45;;;;;;;27.44;43.44;101022.66;5031218;28;20042;-67
2021/06/08 04:59:49;;;;;;;11.25;2.28;;;;;;;27.36;42.80;100997.78;5032172;28;20091;-67
2021/06/08 05:02:20;;;;;;;8.13;2.30;;;;;;;27.44;42.17;100981.97;5031703;28;20045;-68
2021/06/08 05:04:47;;;;;;;10.95;1.83;;;;;;;27.11;43.06;100986.41;5031973;28;20034;-67
2021/06/08 05:07:17;;;;;;;10.93;2.65;;;;;;;27.44;42.33;100998.25;5031468;28;20045;-67
2021/06/08 05:09:47;;;;;;;10.35;2.42;;;;;;;28.05;41.33;101009.56;5030994;28;20057;-67
2021/06/08 05:12:18;;;;;;;8.38;1.95;;;;;;;28.72;40.45;101024.09;5031712;28;20033;-67
2021/06/08 05:14:48;;;;;;;9.88;3.40;;;;;;;29.02;40.07;101026.94;5031201;28;20045;-67
2021/06/08 05:17:19;;;;;;;12.95;2.70;;;;;;;29.39;39.90;101042.09;5030768;28;20120;-67
2021/06/08 05:19:47;;;;;;;9.23;1.98;;;;;;;29.84;39.79;101047.53;5031318;28;20041;-67
2021/06/08 05:22:19;;;;;;;10.48;2.28;;;;;;;30.27;39.37;101056.72;5011444;28;20057;-67
2021/06/08 05:24:50;;;;;;;7.07;2.10;;;;;;;30.61;38.41;101063.69;5025722;28;20094;-68
2021/06/08 05:27:20;;;;;;;6.57;1.75;;;;;;;31.04;37.64;101061.84;5028770;28;20033;-68
2021/06/08 05:29:47;;;;;;;8.38;1.90;;;;;;;31.37;36.32;101072.44;5028764;28;20051;-67
2021/06/08 05:32:14;;;;;;;9.68;1.92;;;;;;;31.54;35.19;101072.19;5029277;28;20128;-70
2021/06/08 05:34:42;;;;;;;6.15;1.60;;;;;;;31.67;34.36;101081.34;5029477;28;20045;-68
2021/06/08 05:37:11;;;;;;;10.93;2.30;;;;;;;31.67;34.12;101075.88;5030671;28;20704;-67
2021/06/08 05:39:39;;;;;;;5.82;1.73;;;;;;;31.75;33.33;101071.75;5031636;28;20029;-68
2021/06/08 05:42:08;;;;;;;7.07;1.40;;;;;;;31.90;32.84;101066.09;5030998;28;20034;-67
2021/06/08 05:44:37;;;;;;;8.23;1.80;;;;;;;32.15;31.76;101068.09;5030588;28;20049;-67
2021/06/08 05:47:05;;;;;;;9.00;2.00;;;;;;;32.41;31.04;101061.66;5029531;28;20076;-68
2021/06/08 05:49:34;;;;;;;7.05;1.50;;;;;;;32.68;30.02;101055.25;5030378;28;20037;-68
2021/06/08 05:52:02;;;;;;;6.07;1.52;;;;;;;32.82;29.32;101055.13;5030535;28;20046;-67
2021/06/08 05:54:31;;;;;;;6.20;1.60;;;;;;;32.93;28.86;101062.53;5031460;28;20045;-68
2021/06/08 05:56:59;;;;;;;8.88;1.48;;;;;;;33.03;27.97;101053.53;5026686;28;20040;-68
2021/06/08 05:59:27;;;;;;;4.80;1.25;;;;;;;33.31;27.42;101049.66;5028949;28;20045;-68
2021/06/08 06:01:57;;;;;;;4.38;1.75;;;;;;;33.53;27.60;101046.19;5029058;28;20048;-67
2021/06/08 06:04:25;;;;;;;8.43;1.80;;;;;;;33.49;28.25;101045.53;5029405;28;20034;-68
2021/06/08 06:06:53;;;;;;;9.38;2.10;;;;;;;33.58;27.61;101041.22;5029175;28;20045;-68
2021/06/08 06:09:22;;;;;;;5.32;1.65;;;;;;;33.76;27.51;101036.22;5030387;28;20071;-68
2021/06/08 06:11:52;;;;;;;5.53;1.80;;;;;;;33.92;28.41;101026.72;5029359;28;20516;-68
2021/06/08 06:14:21;;;;;;;8.52;1.65;;;;;;;34.01;28.70;101012.28;5018078;28;20041;-69
2021/06/08 06:16:52;;;;;;;4.65;1.40;;;;;;;34.10;28.46;101007.06;5030619;28;20033;-67
2021/06/08 06:19:22;;;;;;;5.97;1.70;;;;;;;34.14;28.44;101012.19;5030327;28;20037;-69
2021/06/08 06:21:49;;;;;;;5.85;1.52;;;;;;;34.24;28.47;101004.16;5029810;28;20037;-69
2021/06/08 06:24:17;;;;;;;6.78;1.38;;;;;;;34.28;28.61;101002.91;5027998;28;20045;-68
2021/06/08 06:26:46;;;;;;;4.30;1.20;;;;;;;34.38;28.03;101006.66;5029324;28;20049;-69
2021/06/08 06:29:13;;;;;;;6.57;1.65;;;;;;;34.49;28.25;101003.94;5030059;28;20034;-68
2021/06/08 06:31:44;;;;;;;7.38;1.73;;;;;;;34.59;28.00;101010.41;5029635;28;20474;-68
2021/06/08 06:34:12;;;;;;;8.73;1.75;;;;;;;34.69;27.76;101010.53;5029188;28;20045;-68
2021/06/08 06:36:44;;;;;;;9.55;2.40;;;;;;;34.63;29.02;100995.47;5028677;28;20099;-69
2021/06/08 06:39:17;;;;;;;7.03;2.10;;;;;;;34.29;30.71;101001.91;5029732;28;20049;-68
2021/06/08 06:41:47;;;;;;;8.98;1.85;;;;;;;34.22;31.34;100997.91;5030055;28;20038;-68
2021/06/08 06:44:15;;;;;;;4.05;1.50;;;;;;;34.26;30.97;100999.44;5029261;28;20060;-68
2021/06/08 06:46:43;;;;;;;6.20;1.60;;;;;;;34.25;30.20;101006.78;5029003;28;20038;-68
2021/06/08 06:49:10;;;;;;;6.43;1.63;;;;;;;34.44;29.07;100999.81;5029878;28;20497;-68
2021/06/08 06:51:38;;;;;;;7.88;1.67;;;;;;;34.31;28.57;100997.19;5029038;28;20056;-68
2021/06/08 06:54:08;;;;;;;6.28;1.88;;;;;;;33.99;28.08;100986.00;5029105;28;20061;-69
2021/06/08 06:56:36;;;;;;;6.72;1.70;;;;;;;34.20;27.74;100986.19;5029060;28;20505;-68
2021/06/08 06:59:04;;;;;;;10.40;1.58;;;;;;;34.42;27.58;100994.44;5028769;28;20124;-67
2021/06/08 07:01:32;;;;;;;8.77;2.25;;;;;;;34.54;26.43;100978.84;5029488;28;20107;-67
2021/06/08 07:04:01;;;;;;;6.70;1.75;;;;;;;34.58;25.90;100980.38;5029991;28;20041;-67
2021/06/08 07:06:29;;;;;;;5.93;1.70;;;;;;;34.48;25.39;100969.25;5029763;28;20064;-67
2021/06/08 07:09:00;;;;;;;8.30;1.88;;;;;;;34.49;25.22;100967.41;5028722;28;20404;-67
2021/06/08 07:11:30;;;;;;;5.40;1.23;;;;;;;34.35;25.43;100960.28;5029572;28;20042;-67
2021/06/08 07:13:58;;;;;;;6.45;1.40;;;;;;;34.45;25.18;100966.78;5009414;28;20062;-68
2021/06/08 07:16:26;;;;;;;8.27;1.70;;;;;;;34.38;24.69;100949.09;5008783;28;20439;-67
2021/06/08 07:18:54;;;;;;;9.15;1.60;;;;;;;34.28;24.78;100951.69;5009172;28;20042;-67
2021/06/08 07:21:22;;;;;;;7.47;1.90;;;;;;;34.30;25.03;100963.41;5009131;28;21265;-67
2021/06/08 07:23:51;;;;;;;8.35;1.60;;;;;;;34.29;24.99;100969.00;5009402;28;20065;-67
2021/06/08 07:26:19;;;;;;;7.15;2.05;;;;;;;34.30;24.78;100978.97;5009784;28;20041;-67
2021/06/08 07:28:48;;;;;;;8.10;1.98;;;;;;;34.34;24.61;100969.50;5008854;28;20100;-67
2021/06/08 07:31:31;;;;;;;10.18;2.40;;;;;;;34.30;25.06;100973.50;5008569;28;20099;-67
2021/06/08 07:34:04;;;;;;;6.22;1.80;;;;;;;34.22;25.01;100974.09;5028917;28;20121;-67
2021/06/08 07:36:40;;;;;;;4.93;1.60;;;;;;;34.15;25.11;100971.94;5028852;28;20041;-67
2021/06/08 07:39:19;;;;;;;6.32;2.13;;;;;;;34.06;25.30;100973.56;5029140;28;20083;-66
2021/06/08 07:41:52;;;;;;;7.35;1.90;;;;;;;34.07;25.65;100971.69;5028140;28;20071;-67
2021/06/08 07:44:30;;;;;;;8.38;1.73;;;;;;;34.28;25.59;100978.22;5027292;28;20162;-68
2021/06/08 07:47:01;;;;;;;5.13;1.85;;;;;;;34.49;25.04;100981.13;5002694;28;20042;-68
2021/06/08 07:49:30;;;;;;;8.98;1.67;;;;;;;34.53;25.24;100977.13;5020628;28;20061;-68
2021/06/08 07:51:58;;;;;;;7.78;2.03;;;;;;;34.44;24.60;100975.13;5028406;28;20517;-68
2021/06/08 07:54:27;;;;;;;9.32;1.83;;;;;;;34.29;24.46;100966.25;5029102;28;20128;-68
2021/06/08 07:56:54;;;;;;;15.85;2.40;;;;;;;34.09;24.58;100961.47;5028356;28;20045;-69
2021/06/08 07:59:23;;;;;;;8.55;1.63;;;;;;;33.93;24.61;100972.78;5027442;28;20060;-67
2021/06/08 08:01:51;;;;;;;20.80;2.17;;;;;;;33.93;24.74;100970.06;5027867;28;20490;-67
2021/06/08 08:04:26;;;;;;;7.90;1.55;;;;;;;33.93;24.70;100979.16;5025056;28;20056;-68
2021/06/08 08:06:54;;;;;;;10.80;2.30;;;;;;;33.96;24.60;100975.28;5027159;28;20045;-69
2021/06/08 08:09:22;;;;;;;10.02;1.92;;;;;;;34.08;24.63;100952.38;5027544;28;20053;-68
2021/06/08 08:11:52;;;;;;;6.40;2.20;;;;;;;34.30;24.88;100974.38;5032034;28;20042;-68
2021/06/08 08:14:25;;;;;;;6.72;1.98;;;;;;;34.38;24.03;100966.41;5031340;28;20448;-68
2021/06/08 08:16:55;;;;;;;6.10;1.63;;;;;;;34.20;24.12;100970.56;5020942;28;20455;-68
2021/06/08 08:19:23;;;;;;;8.70;1.77;;;;;;;34.15;24.56;100958.22;5031791;28;20117;-67
2021/06/08 08:21:51;;;;;;;8.45;1.52;;;;;;;34.08;24.58;100952.38;5033083;28;20037;-68
2021/06/08 08:24:18;;;;;;;9.30;1.92;;;;;;;34.06;24.00;100951.63;5032824;28;20132;-68
2021/06/08 08:26:46;;;;;;;5.43;1.65;;;;;;;34.09;24.34;100939.53;5032225;28;20109;-68
2021/06/08 08:29:13;;;;;;;10.20;1.90;;;;;;;34.05;24.16;100935.31;5031873;28;20048;-68
2021/06/08 08:31:42;;;;;;;9.75;2.03;;;;;;;33.97;23.95;100941.41;5032129;28;20030;-69
2021/06/08 08:34:10;;;;;;;15.50;2.40;;;;;;;33.99;24.08;100918.38;5028230;28;20038;-68
2021/06/08 08:36:40;;;;;;;8.48;1.65;;;;;;;33.90;24.02;100918.22;5031314;28;20107;-66
2021/06/08 08:39:09;;;;;;;11.85;2.20;;;;;;;33.81;24.12;100911.59;5032328;28;20034;-67
2021/06/08 08:41:37;;;;;;;8.65;2.47;;;;;;;33.91;24.15;100917.22;5032117;28;20120;-66
2021/06/08 08:44:06;;;;;;;5.95;2.05;;;;;;;34.05;24.30;100911.50;5031294;28;20520;-66
2021/06/08 08:46:34;;;;;;;6.80;1.63;;;;;;;34.18;24.26;100915.00;5030813;28;20044;-67
2021/06/08 08:49:04;;;;;;;6.95;2.17;;;;;;;34.29;23.94;100908.69;5029455;28;20129;-68
2021/06/08 08:51:32;;;;;;;2.92;1.45;;;;;;;34.35;23.62;100916.41;5031924;28;20047;-67
2021/06/08 08:54:01;;;;;;;4.13;1.45;;;;;;;34.47;23.37;100907.16;5019877;28;20049;-66
2021/06/08 08:56:30;;;;;;;6.82;1.80;;;;;;;34.46;23.26;100908.19;5020402;28;20126;-66
2021/06/08 08:58:58;;;;;;;4.95;1.50;;;;;;;34.53;23.11;100908.56;5030835;28;20047;-68
2021/06/08 09:01:25;;;;;;;7.90;1.85;;;;;;;34.65;22.84;100907.56;5025357;28;20052;-67
2021/06/08 09:03:53;;;;;;;6.95;1.58;;;;;;;34.72;22.86;100906.91;5011627;28;20050;-67
2021/06/08 09:06:22;;;;;;;6.05;1.75;;;;;;;34.72;23.01;100901.44;5012201;28;20077;-67
2021/06/08 09:08:50;;;;;;;6.97;1.63;;;;;;;34.72;22.80;100893.19;5022004;28;20030;-67
2021/06/08 09:11:19;;;;;;;8.85;1.83;;;;;;;34.61;22.83;100884.09;5024013;28;20096;-66
2021/06/08 09:13:46;;;;;;;9.23;2.13;;;;;;;34.61;23.03;100909.66;5030023;28;20045;-67
2021/06/08 09:16:14;;;;;;;7.07;1.92;;;;;;;34.75;22.76;100892.97;5029077;28;20087;-67
2021/06/08 09:18:43;;;;;;;5.90;1.40;;;;;;;34.75;22.59;100892.97;5034251;28;20033;-67
2021/06/08 09:21:18;;;;;;;5.60;1.88;;;;;;;34.79;22.83;100899.03;5010458;28;20049;-68
2021/06/08 09:23:47;;;;;;;3.67;1.33;;;;;;;34.87;23.02;100884.69;5011448;28;20065;-68
2021/06/08 09:26:15;;;;;;;5.32;1.60;;;;;;;34.86;22.88;100902.16;5028379;28;20049;-68
2021/06/08 09:28:43;;;;;;;4.82;1.50;;;;;;;34.91;22.92;100883.44;5030076;28;20065;-68
2021/06/08 09:31:13;;;;;;;8.88;2.25;;;;;;;34.96;22.96;100886.66;5030755;28;20485;-67
2021/06/08 09:33:42;;;;;;;7.07;2.00;;;;;;;35.00;22.80;100886.28;5031138;28;20497;-68
2021/06/08 09:36:11;;;;;;;5.60;1.42;;;;;;;35.05;22.89;100880.41;5030409;28;20041;-69
2021/06/08 09:38:45;;;;;;;10.38;1.73;;;;;;;35.11;22.79;100875.28;5030389;28;20045;-69
2021/06/08 09:41:25;;;;;;;6.40;1.90;;;;;;;35.17;22.71;100868.38;5030861;28;20133;-67
2021/06/08 09:44:04;;;;;;;9.20;2.00;;;;;;;35.03;22.84;100871.44;5011265;28;20080;-67
2021/06/08 09:46:34;;;;;;;5.90;1.77;;;;;;;34.95;22.93;100891.28;5030648;28;20037;-67
2021/06/08 09:49:04;;;;;;;9.00;1.70;;;;;;;34.87;23.14;100874.59;5030621;28;20042;-66
2021/06/08 09:51:50;;;;;;;4.68;1.20;;;;;;;34.95;23.35;100869.31;5026363;28;20053;-67
2021/06/08 09:54:29;;;;;;;10.27;2.20;;;;;;;35.01;23.39;100868.81;5015500;28;20037;-67
2021/06/08 09:57:13;;;;;;;4.28;1.40;;;;;;;34.93;23.12;100881.41;5029505;28;20610;-66
2021/06/08 09:59:40;;;;;;;8.18;2.33;;;;;;;34.74;23.33;100847.31;5028813;28;20960;-68
2021/06/08 10:02:25;;;;;;;6.70;2.08;;;;;;;34.71;23.71;100860.44;5028559;28;20065;-67
2021/06/08 10:04:52;;;;;;;;;;;;;;;34.60;23.84;100869.50;5031133;28;20064;-66
2021/06/08 10:07:29;;;;;;;3.88;1.23;;;;;;;34.71;23.80;100872.28;5006006;28;20389;-67
2021/06/08 10:10:04;;;;;;;6.18;1.70;;;;;;;34.74;23.76;100863.78;5013042;28;20048;-66
2021/06/08 10:12:32;;;;;;;8.57;2.22;;;;;;;34.84;23.87;100863.88;5010810;28;20053;-66
2021/06/08 10:15:11;;;;;;;7.82;2.00;;;;;;;34.88;23.61;100853.50;5001460;28;20046;-66
2021/06/08 10:17:38;;;;;;;8.02;2.58;;;;;;;34.81;23.82;100849.53;4997211;28;20499;-66
2021/06/08 10:20:22;;;;;;;7.15;1.73;;;;;;;34.75;23.86;100854.53;5016999;28;20046;-66
2021/06/08 10:22:49;;;;;;;6.90;1.75;;;;;;;34.73;23.86;100850.16;5007410;28;20560;-67
2021/06/08 10:25:17;;;;;;;7.68;1.50;;;;;;;34.68;23.84;100860.63;5009983;28;20038;-67
2021/06/08 10:27:46;;;;;;;6.82;2.22;;;;;;;34.64;23.61;100862.78;5010338;28;20107;-67
2021/06/08 10:30:13;;;;;;;6.93;1.75;;;;;;;34.61;23.33;100849.31;5010135;28;20046;-67
2021/06/08 10:32:40;;;;;;;2.85;1.40;;;;;;;34.57;23.40;100852.44;5009099;28;20587;-67
2021/06/08 10:35:11;;;;;;;6.25;1.83;;;;;;;34.63;23.68;100850.06;5009720;28;20048;-66
2021/06/08 10:37:39;;;;;;;7.05;1.70;;;;;;;34.68;23.68;100853.28;5025462;28;20037;-66
2021/06/08 10:40:07;;;;;;;7.82;1.75;;;;;;;34.75;23.43;100846.31;5013890;28;20049;-67
2021/06/08 10:42:35;;;;;;;6.07;1.95;;;;;;;34.85;23.45;100840.94;5030040;28;20037;-66
2021/06/08 10:45:09;;;;;;;7.25;1.70;;;;;;;34.95;23.46;100838.25;5029246;28;20075;-66
2021/06/08 10:47:39;;;;;;;;;;;;;;;34.93;23.12;100823.78;5015237;28;20034;-66
2021/06/08 10:50:27;;;;;;;7.25;1.30;;;;;;;34.88;23.39;100823.31;5003289;28;19925;-66
2021/06/08 10:52:57;;;;;;;9.48;1.67;;;;;;;34.95;23.10;100821.78;5013105;28;20493;-66
2021/06/08 10:55:28;;;;;;;7.53;2.13;;;;;;;35.07;23.24;100796.03;4991008;28;20069;-67
2021/06/08 10:57:56;;;;;;;7.10;1.85;;;;;;;35.14;22.67;100803.59;5006373;28;20533;-67
2021/06/08 11:00:42;;;;;;;7.45;1.85;;;;;;;35.22;22.66;100810.34;5028600;28;20049;-67
2021/06/08 11:03:12;;;;;;;10.52;1.55;;;;;;;35.22;22.51;100805.72;5009817;28;20565;-66
2021/06/08 11:05:54;;;;;;;7.28;1.67;;;;;;;35.27;22.20;100803.44;5027576;28;20576;-67
2021/06/08 11:08:42;;;;;;;9.50;1.50;;;;;;;35.32;22.35;100798.41;5010016;28;20556;-67
2021/06/08 11:11:14;;;;;;;9.80;1.73;;;;;;;35.47;22.23;100794.31;5020366;28;20061;-67
2021/06/08 11:13:51;;;;;;;6.35;1.70;;;;;;;35.55;21.88;100794.53;5027933;28;20107;-67
2021/06/08 11:16:31;;;;;;;4.65;1.88;;;;;;;35.64;22.25;100805.72;5022257;28;20049;-67
2021/06/08 11:19:01;;;;;;;4.95;1.52;;;;;;;35.66;22.18;100793.56;5024329;28;20080;-66
2021/06/08 11:21:32;;;;;;;5.03;1.92;;;;;;;35.74;22.16;100792.91;5027524;28;20033;-67
2021/06/08 11:23:59;;;;;;;4.63;1.20;;;;;;;35.81;22.21;100791.34;5001970;28;20042;-66
2021/06/08 11:26:49;;;;;;;5.68;1.70;;;;;;;35.89;22.29;100795.19;5009840;28;20040;-67
2021/06/08 11:29:48;;;;;;;6.97;1.92;;;;;;;36.05;22.32;100797.38;5013993;28;20076;-66
2021/06/08 11:32:45;;;;;;;4.43;1.58;;;;;;;36.18;22.50;100795.28;5017591;28;20120;-67
2021/06/08 11:35:16;;;;;;;7.07;1.55;;;;;;;36.05;22.48;100794.63;5021007;28;20212;-66
2021/06/08 11:37:57;;;;;;;7.35;1.50;;;;;;;36.19;22.83;100797.03;5024329;28;20041;-67